<?xml version="1.0" encoding="UTF-8" standalone="no" ?>
<gpx xmlns="http://www.topografix.com/GPX/1/1" xmlns:xsi="http://www.w3.org/2001/XMLSchema-instance" xsi:schemaLocation="http://www.topografix.com/GPX/1/1 http://www.topografix.com/GPX/1/1/gpx.xsd" version="1.1" creator="VisuGPX - https://www.visugpx.com">
  <metadata>
    <name>Boucle 10 Km</name>
    <desc><![CDATA[Au départ de la 'roseraie'   Col de saverne
Temps environ 1h]]></desc>
  </metadata>
  <trk>
    <name><![CDATA[ADi2010/07/08_17:51]]></name>
    <trkseg>
      <trkpt lat="48.74373" lon="7.35679">
        <ele>190.655396</ele>
        <time>2010-07-08T16:12:32Z</time>
      </trkpt>
      <trkpt lat="48.74363" lon="7.35681">
        <ele>191.245239</ele>
        <time>2010-07-08T16:12:37Z</time>
      </trkpt>
      <trkpt lat="48.74348" lon="7.35689">
        <ele>190.460083</ele>
        <time>2010-07-08T16:12:40Z</time>
      </trkpt>
      <trkpt lat="48.7433" lon="7.35694">
        <ele>189.874146</ele>
        <time>2010-07-08T16:12:43Z</time>
      </trkpt>
      <trkpt lat="48.74316" lon="7.35697">
        <ele>189.374146</ele>
        <time>2010-07-08T16:12:45Z</time>
      </trkpt>
      <trkpt lat="48.74302" lon="7.35698">
        <ele>188.706177</ele>
        <time>2010-07-08T16:12:47Z</time>
      </trkpt>
      <trkpt lat="48.74287" lon="7.35699">
        <ele>188.440552</ele>
        <time>2010-07-08T16:12:49Z</time>
      </trkpt>
      <trkpt lat="48.74273" lon="7.35703">
        <ele>188.323364</ele>
        <time>2010-07-08T16:12:51Z</time>
      </trkpt>
      <trkpt lat="48.74259" lon="7.3571">
        <ele>188.374146</ele>
        <time>2010-07-08T16:12:53Z</time>
      </trkpt>
      <trkpt lat="48.74246" lon="7.35718">
        <ele>188.592896</ele>
        <time>2010-07-08T16:12:55Z</time>
      </trkpt>
      <trkpt lat="48.74233" lon="7.35727">
        <ele>189.167114</ele>
        <time>2010-07-08T16:12:57Z</time>
      </trkpt>
      <trkpt lat="48.74221" lon="7.35739">
        <ele>189.565552</ele>
        <time>2010-07-08T16:12:59Z</time>
      </trkpt>
      <trkpt lat="48.74211" lon="7.35754">
        <ele>189.835083</ele>
        <time>2010-07-08T16:13:01Z</time>
      </trkpt>
      <trkpt lat="48.74199" lon="7.35777">
        <ele>190.463989</ele>
        <time>2010-07-08T16:13:04Z</time>
      </trkpt>
      <trkpt lat="48.74189" lon="7.358">
        <ele>191.526489</ele>
        <time>2010-07-08T16:13:07Z</time>
      </trkpt>
      <trkpt lat="48.74181" lon="7.35821">
        <ele>192.487427</ele>
        <time>2010-07-08T16:13:10Z</time>
      </trkpt>
      <trkpt lat="48.74168" lon="7.35831">
        <ele>194.307739</ele>
        <time>2010-07-08T16:13:14Z</time>
      </trkpt>
      <trkpt lat="48.74161" lon="7.35812">
        <ele>194.264771</ele>
        <time>2010-07-08T16:13:18Z</time>
      </trkpt>
      <trkpt lat="48.74155" lon="7.35788">
        <ele>194.081177</ele>
        <time>2010-07-08T16:13:21Z</time>
      </trkpt>
      <trkpt lat="48.74152" lon="7.3576">
        <ele>193.725708</ele>
        <time>2010-07-08T16:13:24Z</time>
      </trkpt>
      <trkpt lat="48.7415" lon="7.35735">
        <ele>193.686646</ele>
        <time>2010-07-08T16:13:27Z</time>
      </trkpt>
      <trkpt lat="48.74147" lon="7.35707">
        <ele>193.432739</ele>
        <time>2010-07-08T16:13:30Z</time>
      </trkpt>
      <trkpt lat="48.74147" lon="7.35685">
        <ele>193.057739</ele>
        <time>2010-07-08T16:13:32Z</time>
      </trkpt>
      <trkpt lat="48.74147" lon="7.3566">
        <ele>192.389771</ele>
        <time>2010-07-08T16:13:34Z</time>
      </trkpt>
      <trkpt lat="48.74147" lon="7.35634">
        <ele>191.901489</ele>
        <time>2010-07-08T16:13:36Z</time>
      </trkpt>
      <trkpt lat="48.74146" lon="7.35609">
        <ele>191.628052</ele>
        <time>2010-07-08T16:13:38Z</time>
      </trkpt>
      <trkpt lat="48.74145" lon="7.35584">
        <ele>191.061646</ele>
        <time>2010-07-08T16:13:40Z</time>
      </trkpt>
      <trkpt lat="48.74143" lon="7.3556">
        <ele>190.499146</ele>
        <time>2010-07-08T16:13:42Z</time>
      </trkpt>
      <trkpt lat="48.74141" lon="7.35534">
        <ele>190.163208</ele>
        <time>2010-07-08T16:13:44Z</time>
      </trkpt>
      <trkpt lat="48.74141" lon="7.35509">
        <ele>189.506958</ele>
        <time>2010-07-08T16:13:46Z</time>
      </trkpt>
      <trkpt lat="48.74139" lon="7.35483">
        <ele>189.128052</ele>
        <time>2010-07-08T16:13:48Z</time>
      </trkpt>
      <trkpt lat="48.74138" lon="7.35458">
        <ele>188.827271</ele>
        <time>2010-07-08T16:13:50Z</time>
      </trkpt>
      <trkpt lat="48.74138" lon="7.35433">
        <ele>188.831177</ele>
        <time>2010-07-08T16:13:52Z</time>
      </trkpt>
      <trkpt lat="48.74137" lon="7.35407">
        <ele>188.381958</ele>
        <time>2010-07-08T16:13:54Z</time>
      </trkpt>
      <trkpt lat="48.74137" lon="7.35382">
        <ele>188.182739</ele>
        <time>2010-07-08T16:13:56Z</time>
      </trkpt>
      <trkpt lat="48.74136" lon="7.35357">
        <ele>187.971802</ele>
        <time>2010-07-08T16:13:58Z</time>
      </trkpt>
      <trkpt lat="48.74135" lon="7.35333">
        <ele>187.651489</ele>
        <time>2010-07-08T16:14:00Z</time>
      </trkpt>
      <trkpt lat="48.74134" lon="7.35308">
        <ele>187.799927</ele>
        <time>2010-07-08T16:14:02Z</time>
      </trkpt>
      <trkpt lat="48.74133" lon="7.35284">
        <ele>187.733521</ele>
        <time>2010-07-08T16:14:04Z</time>
      </trkpt>
      <trkpt lat="48.74133" lon="7.35261">
        <ele>187.889771</ele>
        <time>2010-07-08T16:14:06Z</time>
      </trkpt>
      <trkpt lat="48.74133" lon="7.3524">
        <ele>188.155396</ele>
        <time>2010-07-08T16:14:08Z</time>
      </trkpt>
      <trkpt lat="48.74132" lon="7.35219">
        <ele>188.385864</ele>
        <time>2010-07-08T16:14:10Z</time>
      </trkpt>
      <trkpt lat="48.7413" lon="7.35189">
        <ele>188.721802</ele>
        <time>2010-07-08T16:14:13Z</time>
      </trkpt>
      <trkpt lat="48.7413" lon="7.35164">
        <ele>188.706177</ele>
        <time>2010-07-08T16:14:16Z</time>
      </trkpt>
      <trkpt lat="48.74141" lon="7.35146">
        <ele>187.944458</ele>
        <time>2010-07-08T16:14:19Z</time>
      </trkpt>
      <trkpt lat="48.74152" lon="7.35133">
        <ele>187.874146</ele>
        <time>2010-07-08T16:14:22Z</time>
      </trkpt>
      <trkpt lat="48.74167" lon="7.35129">
        <ele>188.725708</ele>
        <time>2010-07-08T16:14:27Z</time>
      </trkpt>
      <trkpt lat="48.74182" lon="7.35136">
        <ele>187.128052</ele>
        <time>2010-07-08T16:14:33Z</time>
      </trkpt>
      <trkpt lat="48.74195" lon="7.35141">
        <ele>186.206177</ele>
        <time>2010-07-08T16:14:38Z</time>
      </trkpt>
      <trkpt lat="48.74209" lon="7.35138">
        <ele>185.405396</ele>
        <time>2010-07-08T16:14:44Z</time>
      </trkpt>
      <trkpt lat="48.74221" lon="7.35128">
        <ele>185.135864</ele>
        <time>2010-07-08T16:14:50Z</time>
      </trkpt>
      <trkpt lat="48.74216" lon="7.35105">
        <ele>186.272583</ele>
        <time>2010-07-08T16:14:58Z</time>
      </trkpt>
      <trkpt lat="48.74208" lon="7.35088">
        <ele>187.620239</ele>
        <time>2010-07-08T16:15:02Z</time>
      </trkpt>
      <trkpt lat="48.742" lon="7.3507">
        <ele>188.346802</ele>
        <time>2010-07-08T16:15:06Z</time>
      </trkpt>
      <trkpt lat="48.74188" lon="7.3505">
        <ele>188.522583</ele>
        <time>2010-07-08T16:15:10Z</time>
      </trkpt>
      <trkpt lat="48.74178" lon="7.35034">
        <ele>190.010864</ele>
        <time>2010-07-08T16:15:13Z</time>
      </trkpt>
      <trkpt lat="48.74168" lon="7.35017">
        <ele>189.237427</ele>
        <time>2010-07-08T16:15:16Z</time>
      </trkpt>
      <trkpt lat="48.74156" lon="7.34999">
        <ele>188.909302</ele>
        <time>2010-07-08T16:15:19Z</time>
      </trkpt>
      <trkpt lat="48.74145" lon="7.34981">
        <ele>188.956177</ele>
        <time>2010-07-08T16:15:22Z</time>
      </trkpt>
      <trkpt lat="48.74134" lon="7.34965">
        <ele>187.038208</ele>
        <time>2010-07-08T16:15:25Z</time>
      </trkpt>
      <trkpt lat="48.74124" lon="7.34948">
        <ele>186.577271</ele>
        <time>2010-07-08T16:15:28Z</time>
      </trkpt>
      <trkpt lat="48.74113" lon="7.34932">
        <ele>185.694458</ele>
        <time>2010-07-08T16:15:31Z</time>
      </trkpt>
      <trkpt lat="48.74102" lon="7.34915">
        <ele>184.854614</ele>
        <time>2010-07-08T16:15:34Z</time>
      </trkpt>
      <trkpt lat="48.7409" lon="7.34901">
        <ele>183.116333</ele>
        <time>2010-07-08T16:15:37Z</time>
      </trkpt>
      <trkpt lat="48.7408" lon="7.34884">
        <ele>182.354614</ele>
        <time>2010-07-08T16:15:40Z</time>
      </trkpt>
      <trkpt lat="48.74072" lon="7.34866">
        <ele>182.874146</ele>
        <time>2010-07-08T16:15:43Z</time>
      </trkpt>
      <trkpt lat="48.74065" lon="7.34845">
        <ele>182.639771</ele>
        <time>2010-07-08T16:15:46Z</time>
      </trkpt>
      <trkpt lat="48.74068" lon="7.34823">
        <ele>182.870239</ele>
        <time>2010-07-08T16:15:49Z</time>
      </trkpt>
      <trkpt lat="48.7408" lon="7.34806">
        <ele>183.975708</ele>
        <time>2010-07-08T16:15:55Z</time>
      </trkpt>
      <trkpt lat="48.74082" lon="7.34785">
        <ele>186.143677</ele>
        <time>2010-07-08T16:16:02Z</time>
      </trkpt>
      <trkpt lat="48.74069" lon="7.34777">
        <ele>185.858521</ele>
        <time>2010-07-08T16:16:05Z</time>
      </trkpt>
      <trkpt lat="48.74051" lon="7.34767">
        <ele>186.827271</ele>
        <time>2010-07-08T16:16:08Z</time>
      </trkpt>
      <trkpt lat="48.74037" lon="7.34758">
        <ele>188.924927</ele>
        <time>2010-07-08T16:16:11Z</time>
      </trkpt>
      <trkpt lat="48.74023" lon="7.34751">
        <ele>189.780396</ele>
        <time>2010-07-08T16:16:13Z</time>
      </trkpt>
      <trkpt lat="48.74007" lon="7.34743">
        <ele>185.991333</ele>
        <time>2010-07-08T16:16:16Z</time>
      </trkpt>
      <trkpt lat="48.73996" lon="7.34729">
        <ele>186.667114</ele>
        <time>2010-07-08T16:16:19Z</time>
      </trkpt>
      <trkpt lat="48.73986" lon="7.34709">
        <ele>188.202271</ele>
        <time>2010-07-08T16:16:22Z</time>
      </trkpt>
      <trkpt lat="48.7397" lon="7.34693">
        <ele>187.612427</ele>
        <time>2010-07-08T16:16:25Z</time>
      </trkpt>
      <trkpt lat="48.73954" lon="7.34688">
        <ele>188.338989</ele>
        <time>2010-07-08T16:16:28Z</time>
      </trkpt>
      <trkpt lat="48.7394" lon="7.34686">
        <ele>190.131958</ele>
        <time>2010-07-08T16:16:31Z</time>
      </trkpt>
      <trkpt lat="48.73928" lon="7.34677">
        <ele>194.471802</ele>
        <time>2010-07-08T16:16:38Z</time>
      </trkpt>
      <trkpt lat="48.7392" lon="7.3466">
        <ele>192.690552</ele>
        <time>2010-07-08T16:16:43Z</time>
      </trkpt>
      <trkpt lat="48.73908" lon="7.34648">
        <ele>194.534302</ele>
        <time>2010-07-08T16:16:47Z</time>
      </trkpt>
      <trkpt lat="48.73898" lon="7.34631">
        <ele>196.600708</ele>
        <time>2010-07-08T16:16:51Z</time>
      </trkpt>
      <trkpt lat="48.73896" lon="7.3461">
        <ele>197.163208</ele>
        <time>2010-07-08T16:16:55Z</time>
      </trkpt>
      <trkpt lat="48.73894" lon="7.34588">
        <ele>195.061646</ele>
        <time>2010-07-08T16:16:59Z</time>
      </trkpt>
      <trkpt lat="48.73893" lon="7.34567">
        <ele>193.354614</ele>
        <time>2010-07-08T16:17:04Z</time>
      </trkpt>
      <trkpt lat="48.73897" lon="7.34545">
        <ele>193.331177</ele>
        <time>2010-07-08T16:17:09Z</time>
      </trkpt>
      <trkpt lat="48.73902" lon="7.34524">
        <ele>194.065552</ele>
        <time>2010-07-08T16:17:13Z</time>
      </trkpt>
      <trkpt lat="48.73906" lon="7.34503">
        <ele>194.514771</ele>
        <time>2010-07-08T16:17:18Z</time>
      </trkpt>
      <trkpt lat="48.7391" lon="7.3448">
        <ele>197.456177</ele>
        <time>2010-07-08T16:17:23Z</time>
      </trkpt>
      <trkpt lat="48.73913" lon="7.34461">
        <ele>198.546021</ele>
        <time>2010-07-08T16:17:28Z</time>
      </trkpt>
      <trkpt lat="48.73915" lon="7.34441">
        <ele>197.823364</ele>
        <time>2010-07-08T16:17:32Z</time>
      </trkpt>
      <trkpt lat="48.73917" lon="7.3442">
        <ele>200.128052</ele>
        <time>2010-07-08T16:17:38Z</time>
      </trkpt>
      <trkpt lat="48.73924" lon="7.34401">
        <ele>199.713989</ele>
        <time>2010-07-08T16:17:42Z</time>
      </trkpt>
      <trkpt lat="48.7393" lon="7.3438">
        <ele>197.975708</ele>
        <time>2010-07-08T16:17:47Z</time>
      </trkpt>
      <trkpt lat="48.73931" lon="7.34357">
        <ele>197.042114</ele>
        <time>2010-07-08T16:17:53Z</time>
      </trkpt>
      <trkpt lat="48.73932" lon="7.34336">
        <ele>198.135864</ele>
        <time>2010-07-08T16:17:58Z</time>
      </trkpt>
      <trkpt lat="48.73934" lon="7.34315">
        <ele>199.088989</ele>
        <time>2010-07-08T16:18:03Z</time>
      </trkpt>
      <trkpt lat="48.7393" lon="7.34293">
        <ele>199.249146</ele>
        <time>2010-07-08T16:18:09Z</time>
      </trkpt>
      <trkpt lat="48.73929" lon="7.34271">
        <ele>201.706177</ele>
        <time>2010-07-08T16:18:16Z</time>
      </trkpt>
      <trkpt lat="48.73925" lon="7.34251">
        <ele>202.819458</ele>
        <time>2010-07-08T16:18:22Z</time>
      </trkpt>
      <trkpt lat="48.73927" lon="7.3423">
        <ele>204.717896</ele>
        <time>2010-07-08T16:18:29Z</time>
      </trkpt>
      <trkpt lat="48.7393" lon="7.3421">
        <ele>207.506958</ele>
        <time>2010-07-08T16:18:36Z</time>
      </trkpt>
      <trkpt lat="48.73929" lon="7.34187">
        <ele>210.385864</ele>
        <time>2010-07-08T16:18:44Z</time>
      </trkpt>
      <trkpt lat="48.73932" lon="7.34164">
        <ele>214.827271</ele>
        <time>2010-07-08T16:18:52Z</time>
      </trkpt>
      <trkpt lat="48.73932" lon="7.34144">
        <ele>217.514771</ele>
        <time>2010-07-08T16:18:58Z</time>
      </trkpt>
      <trkpt lat="48.7393" lon="7.34122">
        <ele>220.803833</ele>
        <time>2010-07-08T16:19:05Z</time>
      </trkpt>
      <trkpt lat="48.73931" lon="7.34099">
        <ele>224.389771</ele>
        <time>2010-07-08T16:19:13Z</time>
      </trkpt>
      <trkpt lat="48.73933" lon="7.34076">
        <ele>226.710083</ele>
        <time>2010-07-08T16:19:20Z</time>
      </trkpt>
      <trkpt lat="48.73935" lon="7.34055">
        <ele>228.749146</ele>
        <time>2010-07-08T16:19:27Z</time>
      </trkpt>
      <trkpt lat="48.73934" lon="7.34033">
        <ele>229.698364</ele>
        <time>2010-07-08T16:19:34Z</time>
      </trkpt>
      <trkpt lat="48.73936" lon="7.34012">
        <ele>229.088989</ele>
        <time>2010-07-08T16:19:39Z</time>
      </trkpt>
      <trkpt lat="48.73941" lon="7.3399">
        <ele>230.674927</ele>
        <time>2010-07-08T16:19:45Z</time>
      </trkpt>
      <trkpt lat="48.73948" lon="7.33969">
        <ele>230.385864</ele>
        <time>2010-07-08T16:19:51Z</time>
      </trkpt>
      <trkpt lat="48.73951" lon="7.33948">
        <ele>230.588989</ele>
        <time>2010-07-08T16:19:58Z</time>
      </trkpt>
      <trkpt lat="48.73955" lon="7.33929">
        <ele>231.921021</ele>
        <time>2010-07-08T16:20:08Z</time>
      </trkpt>
      <trkpt lat="48.7396" lon="7.3391">
        <ele>235.428833</ele>
        <time>2010-07-08T16:20:16Z</time>
      </trkpt>
      <trkpt lat="48.73964" lon="7.33889">
        <ele>237.753052</ele>
        <time>2010-07-08T16:20:26Z</time>
      </trkpt>
      <trkpt lat="48.73967" lon="7.33868">
        <ele>238.811646</ele>
        <time>2010-07-08T16:20:39Z</time>
      </trkpt>
      <trkpt lat="48.73974" lon="7.3385">
        <ele>238.792114</ele>
        <time>2010-07-08T16:20:50Z</time>
      </trkpt>
      <trkpt lat="48.7398" lon="7.33829">
        <ele>237.221802</ele>
        <time>2010-07-08T16:21:01Z</time>
      </trkpt>
      <trkpt lat="48.73985" lon="7.33808">
        <ele>237.120239</ele>
        <time>2010-07-08T16:21:12Z</time>
      </trkpt>
      <trkpt lat="48.73992" lon="7.33788">
        <ele>239.717896</ele>
        <time>2010-07-08T16:21:21Z</time>
      </trkpt>
      <trkpt lat="48.73996" lon="7.33767">
        <ele>241.338989</ele>
        <time>2010-07-08T16:21:32Z</time>
      </trkpt>
      <trkpt lat="48.74003" lon="7.33749">
        <ele>239.803833</ele>
        <time>2010-07-08T16:21:39Z</time>
      </trkpt>
      <trkpt lat="48.74011" lon="7.3373">
        <ele>239.210083</ele>
        <time>2010-07-08T16:21:45Z</time>
      </trkpt>
      <trkpt lat="48.74016" lon="7.3371">
        <ele>238.971802</ele>
        <time>2010-07-08T16:21:50Z</time>
      </trkpt>
      <trkpt lat="48.74023" lon="7.33689">
        <ele>239.495239</ele>
        <time>2010-07-08T16:21:55Z</time>
      </trkpt>
      <trkpt lat="48.74025" lon="7.33663">
        <ele>241.686646</ele>
        <time>2010-07-08T16:22:01Z</time>
      </trkpt>
      <trkpt lat="48.74026" lon="7.3364">
        <ele>242.756958</ele>
        <time>2010-07-08T16:22:05Z</time>
      </trkpt>
      <trkpt lat="48.74026" lon="7.33617">
        <ele>241.717896</ele>
        <time>2010-07-08T16:22:10Z</time>
      </trkpt>
      <trkpt lat="48.74025" lon="7.33594">
        <ele>243.526489</ele>
        <time>2010-07-08T16:22:14Z</time>
      </trkpt>
      <trkpt lat="48.74027" lon="7.33568">
        <ele>245.944458</ele>
        <time>2010-07-08T16:22:18Z</time>
      </trkpt>
      <trkpt lat="48.74027" lon="7.33545">
        <ele>247.358521</ele>
        <time>2010-07-08T16:22:22Z</time>
      </trkpt>
      <trkpt lat="48.74029" lon="7.33524">
        <ele>247.706177</ele>
        <time>2010-07-08T16:22:25Z</time>
      </trkpt>
      <trkpt lat="48.74029" lon="7.33502">
        <ele>248.221802</ele>
        <time>2010-07-08T16:22:29Z</time>
      </trkpt>
      <trkpt lat="48.74031" lon="7.33479">
        <ele>250.346802</ele>
        <time>2010-07-08T16:22:33Z</time>
      </trkpt>
      <trkpt lat="48.74034" lon="7.33456">
        <ele>251.081177</ele>
        <time>2010-07-08T16:22:37Z</time>
      </trkpt>
      <trkpt lat="48.74039" lon="7.33435">
        <ele>250.362427</ele>
        <time>2010-07-08T16:22:40Z</time>
      </trkpt>
      <trkpt lat="48.74041" lon="7.33413">
        <ele>249.057739</ele>
        <time>2010-07-08T16:22:43Z</time>
      </trkpt>
      <trkpt lat="48.74046" lon="7.33389">
        <ele>247.413208</ele>
        <time>2010-07-08T16:22:47Z</time>
      </trkpt>
      <trkpt lat="48.74049" lon="7.33366">
        <ele>247.713989</ele>
        <time>2010-07-08T16:22:51Z</time>
      </trkpt>
      <trkpt lat="48.74054" lon="7.33343">
        <ele>246.210083</ele>
        <time>2010-07-08T16:22:55Z</time>
      </trkpt>
      <trkpt lat="48.7406" lon="7.33321">
        <ele>244.534302</ele>
        <time>2010-07-08T16:22:59Z</time>
      </trkpt>
      <trkpt lat="48.74057" lon="7.33301">
        <ele>243.862427</ele>
        <time>2010-07-08T16:23:03Z</time>
      </trkpt>
      <trkpt lat="48.74062" lon="7.33273">
        <ele>242.010864</ele>
        <time>2010-07-08T16:23:06Z</time>
      </trkpt>
      <trkpt lat="48.74062" lon="7.33247">
        <ele>241.577271</ele>
        <time>2010-07-08T16:23:10Z</time>
      </trkpt>
      <trkpt lat="48.74064" lon="7.33221">
        <ele>240.268677</ele>
        <time>2010-07-08T16:23:14Z</time>
      </trkpt>
      <trkpt lat="48.74069" lon="7.33198">
        <ele>240.335083</ele>
        <time>2010-07-08T16:23:18Z</time>
      </trkpt>
      <trkpt lat="48.74074" lon="7.33174">
        <ele>239.725708</ele>
        <time>2010-07-08T16:23:22Z</time>
      </trkpt>
      <trkpt lat="48.74079" lon="7.33151">
        <ele>239.456177</ele>
        <time>2010-07-08T16:23:26Z</time>
      </trkpt>
      <trkpt lat="48.74083" lon="7.33131">
        <ele>239.256958</ele>
        <time>2010-07-08T16:23:29Z</time>
      </trkpt>
      <trkpt lat="48.74087" lon="7.33106">
        <ele>239.319458</ele>
        <time>2010-07-08T16:23:33Z</time>
      </trkpt>
      <trkpt lat="48.74091" lon="7.33085">
        <ele>239.561646</ele>
        <time>2010-07-08T16:23:37Z</time>
      </trkpt>
      <trkpt lat="48.74098" lon="7.33058">
        <ele>239.467896</ele>
        <time>2010-07-08T16:23:41Z</time>
      </trkpt>
      <trkpt lat="48.74101" lon="7.33037">
        <ele>240.846802</ele>
        <time>2010-07-08T16:23:45Z</time>
      </trkpt>
      <trkpt lat="48.74106" lon="7.33013">
        <ele>239.397583</ele>
        <time>2010-07-08T16:23:49Z</time>
      </trkpt>
      <trkpt lat="48.74109" lon="7.32992">
        <ele>239.092896</ele>
        <time>2010-07-08T16:23:52Z</time>
      </trkpt>
      <trkpt lat="48.74113" lon="7.32966">
        <ele>237.811646</ele>
        <time>2010-07-08T16:23:56Z</time>
      </trkpt>
      <trkpt lat="48.74115" lon="7.32943">
        <ele>236.448364</ele>
        <time>2010-07-08T16:23:59Z</time>
      </trkpt>
      <trkpt lat="48.74115" lon="7.32922">
        <ele>236.022583</ele>
        <time>2010-07-08T16:24:02Z</time>
      </trkpt>
      <trkpt lat="48.74115" lon="7.32899">
        <ele>236.772583</ele>
        <time>2010-07-08T16:24:05Z</time>
      </trkpt>
      <trkpt lat="48.7412" lon="7.32875">
        <ele>236.733521</ele>
        <time>2010-07-08T16:24:08Z</time>
      </trkpt>
      <trkpt lat="48.74124" lon="7.3285">
        <ele>237.143677</ele>
        <time>2010-07-08T16:24:11Z</time>
      </trkpt>
      <trkpt lat="48.74124" lon="7.32824">
        <ele>236.780396</ele>
        <time>2010-07-08T16:24:14Z</time>
      </trkpt>
      <trkpt lat="48.74131" lon="7.32798">
        <ele>236.639771</ele>
        <time>2010-07-08T16:24:17Z</time>
      </trkpt>
      <trkpt lat="48.74131" lon="7.32774">
        <ele>236.963989</ele>
        <time>2010-07-08T16:24:20Z</time>
      </trkpt>
      <trkpt lat="48.74133" lon="7.32751">
        <ele>238.522583</ele>
        <time>2010-07-08T16:24:23Z</time>
      </trkpt>
      <trkpt lat="48.74136" lon="7.32729">
        <ele>238.745239</ele>
        <time>2010-07-08T16:24:26Z</time>
      </trkpt>
      <trkpt lat="48.74141" lon="7.32704">
        <ele>239.135864</ele>
        <time>2010-07-08T16:24:29Z</time>
      </trkpt>
      <trkpt lat="48.74145" lon="7.32682">
        <ele>239.139771</ele>
        <time>2010-07-08T16:24:32Z</time>
      </trkpt>
      <trkpt lat="48.74151" lon="7.32656">
        <ele>238.088989</ele>
        <time>2010-07-08T16:24:35Z</time>
      </trkpt>
      <trkpt lat="48.74158" lon="7.32632">
        <ele>236.967896</ele>
        <time>2010-07-08T16:24:38Z</time>
      </trkpt>
      <trkpt lat="48.74165" lon="7.32612">
        <ele>236.147583</ele>
        <time>2010-07-08T16:24:40Z</time>
      </trkpt>
      <trkpt lat="48.74169" lon="7.32587">
        <ele>235.604614</ele>
        <time>2010-07-08T16:24:43Z</time>
      </trkpt>
      <trkpt lat="48.74175" lon="7.32562">
        <ele>234.659302</ele>
        <time>2010-07-08T16:24:46Z</time>
      </trkpt>
      <trkpt lat="48.74181" lon="7.32537">
        <ele>234.213989</ele>
        <time>2010-07-08T16:24:49Z</time>
      </trkpt>
      <trkpt lat="48.74187" lon="7.32512">
        <ele>234.100708</ele>
        <time>2010-07-08T16:24:52Z</time>
      </trkpt>
      <trkpt lat="48.74197" lon="7.32487">
        <ele>233.674927</ele>
        <time>2010-07-08T16:24:55Z</time>
      </trkpt>
      <trkpt lat="48.74206" lon="7.32469">
        <ele>234.022583</ele>
        <time>2010-07-08T16:24:57Z</time>
      </trkpt>
      <trkpt lat="48.74218" lon="7.32445">
        <ele>234.135864</ele>
        <time>2010-07-08T16:25:00Z</time>
      </trkpt>
      <trkpt lat="48.7423" lon="7.32427">
        <ele>234.389771</ele>
        <time>2010-07-08T16:25:03Z</time>
      </trkpt>
      <trkpt lat="48.74241" lon="7.32411">
        <ele>234.198364</ele>
        <time>2010-07-08T16:25:07Z</time>
      </trkpt>
      <trkpt lat="48.74252" lon="7.32394">
        <ele>234.366333</ele>
        <time>2010-07-08T16:25:11Z</time>
      </trkpt>
      <trkpt lat="48.74263" lon="7.32381">
        <ele>235.737427</ele>
        <time>2010-07-08T16:25:15Z</time>
      </trkpt>
      <trkpt lat="48.74276" lon="7.32366">
        <ele>236.417114</ele>
        <time>2010-07-08T16:25:19Z</time>
      </trkpt>
      <trkpt lat="48.74292" lon="7.32347">
        <ele>237.639771</ele>
        <time>2010-07-08T16:25:23Z</time>
      </trkpt>
      <trkpt lat="48.74303" lon="7.32333">
        <ele>239.612427</ele>
        <time>2010-07-08T16:25:26Z</time>
      </trkpt>
      <trkpt lat="48.74316" lon="7.32319">
        <ele>239.174927</ele>
        <time>2010-07-08T16:25:30Z</time>
      </trkpt>
      <trkpt lat="48.7433" lon="7.32303">
        <ele>240.174927</ele>
        <time>2010-07-08T16:25:34Z</time>
      </trkpt>
      <trkpt lat="48.74342" lon="7.32287">
        <ele>239.749146</ele>
        <time>2010-07-08T16:25:38Z</time>
      </trkpt>
      <trkpt lat="48.74354" lon="7.3227">
        <ele>241.389771</ele>
        <time>2010-07-08T16:25:42Z</time>
      </trkpt>
      <trkpt lat="48.74366" lon="7.32257">
        <ele>242.725708</ele>
        <time>2010-07-08T16:25:46Z</time>
      </trkpt>
      <trkpt lat="48.74377" lon="7.32241">
        <ele>241.885864</ele>
        <time>2010-07-08T16:25:51Z</time>
      </trkpt>
      <trkpt lat="48.74389" lon="7.32229">
        <ele>240.549927</ele>
        <time>2010-07-08T16:25:55Z</time>
      </trkpt>
      <trkpt lat="48.74399" lon="7.32215">
        <ele>238.788208</ele>
        <time>2010-07-08T16:26:00Z</time>
      </trkpt>
      <trkpt lat="48.74411" lon="7.32204">
        <ele>238.815552</ele>
        <time>2010-07-08T16:26:05Z</time>
      </trkpt>
      <trkpt lat="48.74424" lon="7.32192">
        <ele>238.971802</ele>
        <time>2010-07-08T16:26:11Z</time>
      </trkpt>
      <trkpt lat="48.74437" lon="7.32182">
        <ele>239.542114</ele>
        <time>2010-07-08T16:26:17Z</time>
      </trkpt>
      <trkpt lat="48.7445" lon="7.32175">
        <ele>240.065552</ele>
        <time>2010-07-08T16:26:22Z</time>
      </trkpt>
      <trkpt lat="48.74463" lon="7.32172">
        <ele>240.921021</ele>
        <time>2010-07-08T16:26:32Z</time>
      </trkpt>
      <trkpt lat="48.74476" lon="7.32168">
        <ele>243.381958</ele>
        <time>2010-07-08T16:26:39Z</time>
      </trkpt>
      <trkpt lat="48.7449" lon="7.32166">
        <ele>247.120239</ele>
        <time>2010-07-08T16:26:53Z</time>
      </trkpt>
      <trkpt lat="48.74504" lon="7.32162">
        <ele>250.292114</ele>
        <time>2010-07-08T16:27:02Z</time>
      </trkpt>
      <trkpt lat="48.74518" lon="7.32155">
        <ele>251.167114</ele>
        <time>2010-07-08T16:27:09Z</time>
      </trkpt>
      <trkpt lat="48.74535" lon="7.32151">
        <ele>249.038208</ele>
        <time>2010-07-08T16:27:15Z</time>
      </trkpt>
      <trkpt lat="48.74549" lon="7.32149">
        <ele>246.440552</ele>
        <time>2010-07-08T16:27:22Z</time>
      </trkpt>
      <trkpt lat="48.74563" lon="7.32145">
        <ele>248.909302</ele>
        <time>2010-07-08T16:27:26Z</time>
      </trkpt>
      <trkpt lat="48.74578" lon="7.32141">
        <ele>248.393677</ele>
        <time>2010-07-08T16:27:31Z</time>
      </trkpt>
      <trkpt lat="48.74592" lon="7.32141">
        <ele>249.116333</ele>
        <time>2010-07-08T16:27:37Z</time>
      </trkpt>
      <trkpt lat="48.74608" lon="7.32134">
        <ele>249.120239</ele>
        <time>2010-07-08T16:27:43Z</time>
      </trkpt>
      <trkpt lat="48.74621" lon="7.32127">
        <ele>249.206177</ele>
        <time>2010-07-08T16:27:47Z</time>
      </trkpt>
      <trkpt lat="48.74634" lon="7.32119">
        <ele>247.936646</ele>
        <time>2010-07-08T16:27:50Z</time>
      </trkpt>
      <trkpt lat="48.7465" lon="7.32113">
        <ele>248.065552</ele>
        <time>2010-07-08T16:27:55Z</time>
      </trkpt>
      <trkpt lat="48.74666" lon="7.32103">
        <ele>248.647583</ele>
        <time>2010-07-08T16:28:00Z</time>
      </trkpt>
      <trkpt lat="48.74681" lon="7.32096">
        <ele>249.827271</ele>
        <time>2010-07-08T16:28:05Z</time>
      </trkpt>
      <trkpt lat="48.74694" lon="7.32093">
        <ele>251.303833</ele>
        <time>2010-07-08T16:28:10Z</time>
      </trkpt>
      <trkpt lat="48.74708" lon="7.32087">
        <ele>251.823364</ele>
        <time>2010-07-08T16:28:15Z</time>
      </trkpt>
      <trkpt lat="48.74723" lon="7.32085">
        <ele>254.616333</ele>
        <time>2010-07-08T16:28:21Z</time>
      </trkpt>
      <trkpt lat="48.74737" lon="7.32081">
        <ele>254.838989</ele>
        <time>2010-07-08T16:28:26Z</time>
      </trkpt>
      <trkpt lat="48.74751" lon="7.32081">
        <ele>255.350708</ele>
        <time>2010-07-08T16:28:32Z</time>
      </trkpt>
      <trkpt lat="48.74765" lon="7.32082">
        <ele>256.607666</ele>
        <time>2010-07-08T16:28:37Z</time>
      </trkpt>
      <trkpt lat="48.74782" lon="7.32086">
        <ele>257.138916</ele>
        <time>2010-07-08T16:28:44Z</time>
      </trkpt>
      <trkpt lat="48.74796" lon="7.3208">
        <ele>255.913208</ele>
        <time>2010-07-08T16:28:48Z</time>
      </trkpt>
      <trkpt lat="48.7481" lon="7.32078">
        <ele>260.287354</ele>
        <time>2010-07-08T16:28:55Z</time>
      </trkpt>
      <trkpt lat="48.74823" lon="7.3207">
        <ele>262.662354</ele>
        <time>2010-07-08T16:29:02Z</time>
      </trkpt>
      <trkpt lat="48.74838" lon="7.32062">
        <ele>263.927979</ele>
        <time>2010-07-08T16:29:09Z</time>
      </trkpt>
      <trkpt lat="48.74852" lon="7.32055">
        <ele>266.209229</ele>
        <time>2010-07-08T16:29:15Z</time>
      </trkpt>
      <trkpt lat="48.74865" lon="7.32049">
        <ele>265.842041</ele>
        <time>2010-07-08T16:29:25Z</time>
      </trkpt>
      <trkpt lat="48.7488" lon="7.32043">
        <ele>262.763916</ele>
        <time>2010-07-08T16:29:31Z</time>
      </trkpt>
      <trkpt lat="48.74894" lon="7.32038">
        <ele>259.154541</ele>
        <time>2010-07-08T16:29:39Z</time>
      </trkpt>
      <trkpt lat="48.74908" lon="7.32034">
        <ele>259.670166</ele>
        <time>2010-07-08T16:29:45Z</time>
      </trkpt>
      <trkpt lat="48.74922" lon="7.32028">
        <ele>262.342041</ele>
        <time>2010-07-08T16:29:51Z</time>
      </trkpt>
      <trkpt lat="48.74935" lon="7.32017">
        <ele>262.498291</ele>
        <time>2010-07-08T16:29:57Z</time>
      </trkpt>
      <trkpt lat="48.74949" lon="7.32009">
        <ele>262.615479</ele>
        <time>2010-07-08T16:30:03Z</time>
      </trkpt>
      <trkpt lat="48.74962" lon="7.32003">
        <ele>262.701416</ele>
        <time>2010-07-08T16:30:10Z</time>
      </trkpt>
      <trkpt lat="48.74976" lon="7.31996">
        <ele>261.521729</ele>
        <time>2010-07-08T16:30:20Z</time>
      </trkpt>
      <trkpt lat="48.74991" lon="7.31994">
        <ele>258.537354</ele>
        <time>2010-07-08T16:30:29Z</time>
      </trkpt>
      <trkpt lat="48.75005" lon="7.31989">
        <ele>258.443604</ele>
        <time>2010-07-08T16:30:38Z</time>
      </trkpt>
      <trkpt lat="48.75018" lon="7.31984">
        <ele>262.209229</ele>
        <time>2010-07-08T16:30:51Z</time>
      </trkpt>
      <trkpt lat="48.75033" lon="7.31977">
        <ele>262.584229</ele>
        <time>2010-07-08T16:31:05Z</time>
      </trkpt>
      <trkpt lat="48.75046" lon="7.3197">
        <ele>263.256104</ele>
        <time>2010-07-08T16:31:14Z</time>
      </trkpt>
      <trkpt lat="48.7506" lon="7.31963">
        <ele>265.388916</ele>
        <time>2010-07-08T16:31:25Z</time>
      </trkpt>
      <trkpt lat="48.75072" lon="7.31955">
        <ele>267.935791</ele>
        <time>2010-07-08T16:31:42Z</time>
      </trkpt>
      <trkpt lat="48.75085" lon="7.31948">
        <ele>270.076416</ele>
        <time>2010-07-08T16:31:53Z</time>
      </trkpt>
      <trkpt lat="48.75099" lon="7.31946">
        <ele>272.990479</ele>
        <time>2010-07-08T16:32:05Z</time>
      </trkpt>
      <trkpt lat="48.75113" lon="7.31943">
        <ele>279.318604</ele>
        <time>2010-07-08T16:32:18Z</time>
      </trkpt>
      <trkpt lat="48.75126" lon="7.3194">
        <ele>282.217041</ele>
        <time>2010-07-08T16:32:25Z</time>
      </trkpt>
      <trkpt lat="48.75141" lon="7.31935">
        <ele>285.170166</ele>
        <time>2010-07-08T16:32:31Z</time>
      </trkpt>
      <trkpt lat="48.75156" lon="7.31935">
        <ele>291.506104</ele>
        <time>2010-07-08T16:32:41Z</time>
      </trkpt>
      <trkpt lat="48.75171" lon="7.31938">
        <ele>298.240479</ele>
        <time>2010-07-08T16:32:50Z</time>
      </trkpt>
      <trkpt lat="48.75185" lon="7.31942">
        <ele>300.857666</ele>
        <time>2010-07-08T16:32:56Z</time>
      </trkpt>
      <trkpt lat="48.75198" lon="7.31949">
        <ele>305.412354</ele>
        <time>2010-07-08T16:33:03Z</time>
      </trkpt>
      <trkpt lat="48.7521" lon="7.31956">
        <ele>307.912354</ele>
        <time>2010-07-08T16:33:09Z</time>
      </trkpt>
      <trkpt lat="48.75224" lon="7.31963">
        <ele>308.763916</ele>
        <time>2010-07-08T16:33:17Z</time>
      </trkpt>
      <trkpt lat="48.75234" lon="7.31979">
        <ele>310.935791</ele>
        <time>2010-07-08T16:33:25Z</time>
      </trkpt>
      <trkpt lat="48.75248" lon="7.31981">
        <ele>313.552979</ele>
        <time>2010-07-08T16:33:31Z</time>
      </trkpt>
      <trkpt lat="48.75264" lon="7.31986">
        <ele>316.302979</ele>
        <time>2010-07-08T16:33:37Z</time>
      </trkpt>
      <trkpt lat="48.75278" lon="7.3199">
        <ele>317.060791</ele>
        <time>2010-07-08T16:33:43Z</time>
      </trkpt>
      <trkpt lat="48.75292" lon="7.31991">
        <ele>320.209229</ele>
        <time>2010-07-08T16:33:49Z</time>
      </trkpt>
      <trkpt lat="48.75309" lon="7.31987">
        <ele>322.084229</ele>
        <time>2010-07-08T16:33:54Z</time>
      </trkpt>
      <trkpt lat="48.75324" lon="7.31988">
        <ele>321.740479</ele>
        <time>2010-07-08T16:33:59Z</time>
      </trkpt>
      <trkpt lat="48.75339" lon="7.31984">
        <ele>319.529541</ele>
        <time>2010-07-08T16:34:03Z</time>
      </trkpt>
      <trkpt lat="48.75354" lon="7.31983">
        <ele>318.412354</ele>
        <time>2010-07-08T16:34:08Z</time>
      </trkpt>
      <trkpt lat="48.7537" lon="7.31984">
        <ele>318.568604</ele>
        <time>2010-07-08T16:34:13Z</time>
      </trkpt>
      <trkpt lat="48.75383" lon="7.31981">
        <ele>318.013916</ele>
        <time>2010-07-08T16:34:16Z</time>
      </trkpt>
      <trkpt lat="48.75398" lon="7.31987">
        <ele>321.865479</ele>
        <time>2010-07-08T16:34:22Z</time>
      </trkpt>
      <trkpt lat="48.75412" lon="7.31989">
        <ele>322.060791</ele>
        <time>2010-07-08T16:34:28Z</time>
      </trkpt>
      <trkpt lat="48.75426" lon="7.31992">
        <ele>324.162354</ele>
        <time>2010-07-08T16:34:34Z</time>
      </trkpt>
      <trkpt lat="48.75441" lon="7.31995">
        <ele>327.787354</ele>
        <time>2010-07-08T16:34:40Z</time>
      </trkpt>
      <trkpt lat="48.75456" lon="7.31997">
        <ele>328.279541</ele>
        <time>2010-07-08T16:34:45Z</time>
      </trkpt>
      <trkpt lat="48.75469" lon="7.32005">
        <ele>326.927979</ele>
        <time>2010-07-08T16:34:52Z</time>
      </trkpt>
      <trkpt lat="48.75481" lon="7.32018">
        <ele>327.615479</ele>
        <time>2010-07-08T16:35:01Z</time>
      </trkpt>
      <trkpt lat="48.75493" lon="7.32027">
        <ele>330.732666</ele>
        <time>2010-07-08T16:35:11Z</time>
      </trkpt>
      <trkpt lat="48.75506" lon="7.32037">
        <ele>331.756104</ele>
        <time>2010-07-08T16:35:20Z</time>
      </trkpt>
      <trkpt lat="48.75519" lon="7.32045">
        <ele>331.998291</ele>
        <time>2010-07-08T16:35:28Z</time>
      </trkpt>
      <trkpt lat="48.75532" lon="7.32057">
        <ele>333.474854</ele>
        <time>2010-07-08T16:35:39Z</time>
      </trkpt>
      <trkpt lat="48.75542" lon="7.32072">
        <ele>334.623291</ele>
        <time>2010-07-08T16:35:51Z</time>
      </trkpt>
      <trkpt lat="48.75555" lon="7.32079">
        <ele>338.435791</ele>
        <time>2010-07-08T16:36:06Z</time>
      </trkpt>
      <trkpt lat="48.75565" lon="7.32094">
        <ele>340.552979</ele>
        <time>2010-07-08T16:36:45Z</time>
      </trkpt>
      <trkpt lat="48.75554" lon="7.32108">
        <ele>340.568604</ele>
        <time>2010-07-08T16:37:04Z</time>
      </trkpt>
      <trkpt lat="48.75569" lon="7.32103">
        <ele>338.115479</ele>
        <time>2010-07-08T16:37:38Z</time>
      </trkpt>
      <trkpt lat="48.75583" lon="7.32108">
        <ele>340.670166</ele>
        <time>2010-07-08T16:37:57Z</time>
      </trkpt>
      <trkpt lat="48.75597" lon="7.32113">
        <ele>343.685791</ele>
        <time>2010-07-08T16:38:13Z</time>
      </trkpt>
      <trkpt lat="48.75609" lon="7.32121">
        <ele>344.115479</ele>
        <time>2010-07-08T16:38:28Z</time>
      </trkpt>
      <trkpt lat="48.75623" lon="7.32122">
        <ele>347.373291</ele>
        <time>2010-07-08T16:38:43Z</time>
      </trkpt>
      <trkpt lat="48.75636" lon="7.32132">
        <ele>344.920166</ele>
        <time>2010-07-08T16:39:02Z</time>
      </trkpt>
      <trkpt lat="48.75649" lon="7.32136">
        <ele>348.701416</ele>
        <time>2010-07-08T16:39:21Z</time>
      </trkpt>
      <trkpt lat="48.75663" lon="7.32136">
        <ele>349.224854</ele>
        <time>2010-07-08T16:39:42Z</time>
      </trkpt>
      <trkpt lat="48.75676" lon="7.3213">
        <ele>351.685791</ele>
        <time>2010-07-08T16:39:54Z</time>
      </trkpt>
      <trkpt lat="48.75689" lon="7.32129">
        <ele>355.482666</ele>
        <time>2010-07-08T16:40:14Z</time>
      </trkpt>
      <trkpt lat="48.75703" lon="7.32124">
        <ele>358.427979</ele>
        <time>2010-07-08T16:40:28Z</time>
      </trkpt>
      <trkpt lat="48.75716" lon="7.32119">
        <ele>358.357666</ele>
        <time>2010-07-08T16:40:35Z</time>
      </trkpt>
      <trkpt lat="48.75729" lon="7.32125">
        <ele>361.834229</ele>
        <time>2010-07-08T16:40:56Z</time>
      </trkpt>
      <trkpt lat="48.75743" lon="7.32127">
        <ele>363.357666</ele>
        <time>2010-07-08T16:41:10Z</time>
      </trkpt>
      <trkpt lat="48.75756" lon="7.3212">
        <ele>363.443604</ele>
        <time>2010-07-08T16:41:21Z</time>
      </trkpt>
      <trkpt lat="48.7577" lon="7.32125">
        <ele>362.732666</ele>
        <time>2010-07-08T16:41:35Z</time>
      </trkpt>
      <trkpt lat="48.75783" lon="7.32132">
        <ele>362.177979</ele>
        <time>2010-07-08T16:41:51Z</time>
      </trkpt>
      <trkpt lat="48.75796" lon="7.32141">
        <ele>362.209229</ele>
        <time>2010-07-08T16:42:26Z</time>
      </trkpt>
      <trkpt lat="48.75811" lon="7.3214">
        <ele>363.342041</ele>
        <time>2010-07-08T16:42:39Z</time>
      </trkpt>
      <trkpt lat="48.75822" lon="7.32127">
        <ele>365.849854</ele>
        <time>2010-07-08T16:42:48Z</time>
      </trkpt>
      <trkpt lat="48.75834" lon="7.32117">
        <ele>369.623291</ele>
        <time>2010-07-08T16:42:58Z</time>
      </trkpt>
      <trkpt lat="48.75846" lon="7.32108">
        <ele>370.365479</ele>
        <time>2010-07-08T16:43:06Z</time>
      </trkpt>
      <trkpt lat="48.75853" lon="7.32091">
        <ele>370.857666</ele>
        <time>2010-07-08T16:43:25Z</time>
      </trkpt>
      <trkpt lat="48.75863" lon="7.32071">
        <ele>371.068604</ele>
        <time>2010-07-08T16:43:29Z</time>
      </trkpt>
      <trkpt lat="48.75873" lon="7.32056">
        <ele>370.373291</ele>
        <time>2010-07-08T16:43:36Z</time>
      </trkpt>
      <trkpt lat="48.75885" lon="7.32044">
        <ele>370.552979</ele>
        <time>2010-07-08T16:43:52Z</time>
      </trkpt>
      <trkpt lat="48.75899" lon="7.32041">
        <ele>372.740479</ele>
        <time>2010-07-08T16:44:02Z</time>
      </trkpt>
      <trkpt lat="48.7591" lon="7.32031">
        <ele>370.373291</ele>
        <time>2010-07-08T16:44:21Z</time>
      </trkpt>
      <trkpt lat="48.75898" lon="7.32039">
        <ele>369.084229</ele>
        <time>2010-07-08T16:44:55Z</time>
      </trkpt>
      <trkpt lat="48.75885" lon="7.32045">
        <ele>369.084229</ele>
        <time>2010-07-08T16:45:08Z</time>
      </trkpt>
      <trkpt lat="48.75871" lon="7.32056">
        <ele>369.802979</ele>
        <time>2010-07-08T16:45:24Z</time>
      </trkpt>
      <trkpt lat="48.75863" lon="7.32075">
        <ele>370.865479</ele>
        <time>2010-07-08T16:45:34Z</time>
      </trkpt>
      <trkpt lat="48.75853" lon="7.32093">
        <ele>370.607666</ele>
        <time>2010-07-08T16:45:38Z</time>
      </trkpt>
      <trkpt lat="48.75841" lon="7.32106">
        <ele>369.302979</ele>
        <time>2010-07-08T16:45:43Z</time>
      </trkpt>
      <trkpt lat="48.75828" lon="7.32117">
        <ele>368.967041</ele>
        <time>2010-07-08T16:45:48Z</time>
      </trkpt>
      <trkpt lat="48.75815" lon="7.32132">
        <ele>368.092041</ele>
        <time>2010-07-08T16:45:51Z</time>
      </trkpt>
      <trkpt lat="48.75803" lon="7.32147">
        <ele>367.537354</ele>
        <time>2010-07-08T16:45:54Z</time>
      </trkpt>
      <trkpt lat="48.7579" lon="7.32154">
        <ele>367.607666</ele>
        <time>2010-07-08T16:45:57Z</time>
      </trkpt>
      <trkpt lat="48.75775" lon="7.32163">
        <ele>368.342041</ele>
        <time>2010-07-08T16:46:01Z</time>
      </trkpt>
      <trkpt lat="48.75763" lon="7.32174">
        <ele>369.654541</ele>
        <time>2010-07-08T16:46:06Z</time>
      </trkpt>
      <trkpt lat="48.75754" lon="7.3219">
        <ele>371.162354</ele>
        <time>2010-07-08T16:46:13Z</time>
      </trkpt>
      <trkpt lat="48.75744" lon="7.32204">
        <ele>373.185791</ele>
        <time>2010-07-08T16:46:24Z</time>
      </trkpt>
      <trkpt lat="48.75735" lon="7.32221">
        <ele>375.287354</ele>
        <time>2010-07-08T16:46:32Z</time>
      </trkpt>
      <trkpt lat="48.75724" lon="7.32235">
        <ele>377.506104</ele>
        <time>2010-07-08T16:46:41Z</time>
      </trkpt>
      <trkpt lat="48.75714" lon="7.3225">
        <ele>378.982666</ele>
        <time>2010-07-08T16:46:49Z</time>
      </trkpt>
      <trkpt lat="48.75715" lon="7.32272">
        <ele>379.717041</ele>
        <time>2010-07-08T16:46:59Z</time>
      </trkpt>
      <trkpt lat="48.75731" lon="7.32272">
        <ele>380.396729</ele>
        <time>2010-07-08T16:47:09Z</time>
      </trkpt>
      <trkpt lat="48.75747" lon="7.32269">
        <ele>381.412354</ele>
        <time>2010-07-08T16:47:15Z</time>
      </trkpt>
      <trkpt lat="48.75762" lon="7.32271">
        <ele>383.123291</ele>
        <time>2010-07-08T16:47:21Z</time>
      </trkpt>
      <trkpt lat="48.75774" lon="7.32279">
        <ele>383.115479</ele>
        <time>2010-07-08T16:47:26Z</time>
      </trkpt>
      <trkpt lat="48.75789" lon="7.32287">
        <ele>384.670166</ele>
        <time>2010-07-08T16:47:32Z</time>
      </trkpt>
      <trkpt lat="48.75802" lon="7.32299">
        <ele>386.217041</ele>
        <time>2010-07-08T16:47:38Z</time>
      </trkpt>
      <trkpt lat="48.75815" lon="7.32305">
        <ele>387.865479</ele>
        <time>2010-07-08T16:47:43Z</time>
      </trkpt>
      <trkpt lat="48.75829" lon="7.32308">
        <ele>389.162354</ele>
        <time>2010-07-08T16:47:49Z</time>
      </trkpt>
      <trkpt lat="48.75842" lon="7.32303">
        <ele>391.826416</ele>
        <time>2010-07-08T16:47:58Z</time>
      </trkpt>
      <trkpt lat="48.75855" lon="7.32292">
        <ele>392.545166</ele>
        <time>2010-07-08T16:48:07Z</time>
      </trkpt>
      <trkpt lat="48.75866" lon="7.32276">
        <ele>391.545166</ele>
        <time>2010-07-08T16:48:15Z</time>
      </trkpt>
      <trkpt lat="48.75878" lon="7.32262">
        <ele>391.802979</ele>
        <time>2010-07-08T16:48:22Z</time>
      </trkpt>
      <trkpt lat="48.7589" lon="7.3225">
        <ele>386.568604</ele>
        <time>2010-07-08T16:48:29Z</time>
      </trkpt>
      <trkpt lat="48.75903" lon="7.32241">
        <ele>385.365479</ele>
        <time>2010-07-08T16:48:35Z</time>
      </trkpt>
      <trkpt lat="48.75917" lon="7.32234">
        <ele>384.802979</ele>
        <time>2010-07-08T16:48:42Z</time>
      </trkpt>
      <trkpt lat="48.7593" lon="7.32232">
        <ele>386.599854</ele>
        <time>2010-07-08T16:48:48Z</time>
      </trkpt>
      <trkpt lat="48.75946" lon="7.32232">
        <ele>390.162354</ele>
        <time>2010-07-08T16:48:55Z</time>
      </trkpt>
      <trkpt lat="48.75962" lon="7.32233">
        <ele>393.263916</ele>
        <time>2010-07-08T16:49:01Z</time>
      </trkpt>
      <trkpt lat="48.75975" lon="7.32236">
        <ele>396.857666</ele>
        <time>2010-07-08T16:49:06Z</time>
      </trkpt>
      <trkpt lat="48.75989" lon="7.32242">
        <ele>398.576416</ele>
        <time>2010-07-08T16:49:12Z</time>
      </trkpt>
      <trkpt lat="48.76003" lon="7.32248">
        <ele>399.529541</ele>
        <time>2010-07-08T16:49:17Z</time>
      </trkpt>
      <trkpt lat="48.76018" lon="7.32255">
        <ele>399.006104</ele>
        <time>2010-07-08T16:49:23Z</time>
      </trkpt>
      <trkpt lat="48.76032" lon="7.32257">
        <ele>398.881104</ele>
        <time>2010-07-08T16:49:27Z</time>
      </trkpt>
      <trkpt lat="48.76048" lon="7.32253">
        <ele>398.560791</ele>
        <time>2010-07-08T16:49:31Z</time>
      </trkpt>
      <trkpt lat="48.76062" lon="7.32246">
        <ele>397.381104</ele>
        <time>2010-07-08T16:49:35Z</time>
      </trkpt>
      <trkpt lat="48.76074" lon="7.32234">
        <ele>396.513916</ele>
        <time>2010-07-08T16:49:38Z</time>
      </trkpt>
      <trkpt lat="48.76087" lon="7.32221">
        <ele>396.943604</ele>
        <time>2010-07-08T16:49:41Z</time>
      </trkpt>
      <trkpt lat="48.76101" lon="7.32209">
        <ele>397.818604</ele>
        <time>2010-07-08T16:49:45Z</time>
      </trkpt>
      <trkpt lat="48.76115" lon="7.32201">
        <ele>399.076416</ele>
        <time>2010-07-08T16:49:52Z</time>
      </trkpt>
      <trkpt lat="48.7613" lon="7.322">
        <ele>402.029541</ele>
        <time>2010-07-08T16:50:02Z</time>
      </trkpt>
      <trkpt lat="48.76142" lon="7.32206">
        <ele>406.959229</ele>
        <time>2010-07-08T16:50:14Z</time>
      </trkpt>
      <trkpt lat="48.76156" lon="7.32206">
        <ele>409.295166</ele>
        <time>2010-07-08T16:50:21Z</time>
      </trkpt>
      <trkpt lat="48.76169" lon="7.32218">
        <ele>411.052979</ele>
        <time>2010-07-08T16:50:32Z</time>
      </trkpt>
      <trkpt lat="48.7618" lon="7.32232">
        <ele>410.599854</ele>
        <time>2010-07-08T16:50:42Z</time>
      </trkpt>
      <trkpt lat="48.76193" lon="7.32244">
        <ele>412.334229</ele>
        <time>2010-07-08T16:50:51Z</time>
      </trkpt>
      <trkpt lat="48.76205" lon="7.32254">
        <ele>413.615479</ele>
        <time>2010-07-08T16:50:59Z</time>
      </trkpt>
      <trkpt lat="48.76216" lon="7.32269">
        <ele>414.115479</ele>
        <time>2010-07-08T16:51:07Z</time>
      </trkpt>
      <trkpt lat="48.76228" lon="7.32278">
        <ele>414.990479</ele>
        <time>2010-07-08T16:51:12Z</time>
      </trkpt>
      <trkpt lat="48.76235" lon="7.32296">
        <ele>413.248291</ele>
        <time>2010-07-08T16:51:18Z</time>
      </trkpt>
      <trkpt lat="48.76249" lon="7.32309">
        <ele>411.693604</ele>
        <time>2010-07-08T16:51:23Z</time>
      </trkpt>
      <trkpt lat="48.76262" lon="7.32322">
        <ele>409.576416</ele>
        <time>2010-07-08T16:51:28Z</time>
      </trkpt>
      <trkpt lat="48.76274" lon="7.32337">
        <ele>406.693604</ele>
        <time>2010-07-08T16:51:34Z</time>
      </trkpt>
      <trkpt lat="48.76268" lon="7.32357">
        <ele>402.967041</ele>
        <time>2010-07-08T16:51:43Z</time>
      </trkpt>
      <trkpt lat="48.76257" lon="7.32371">
        <ele>401.756104</ele>
        <time>2010-07-08T16:51:47Z</time>
      </trkpt>
      <trkpt lat="48.76247" lon="7.32387">
        <ele>402.162354</ele>
        <time>2010-07-08T16:51:51Z</time>
      </trkpt>
      <trkpt lat="48.76234" lon="7.32405">
        <ele>400.732666</ele>
        <time>2010-07-08T16:51:55Z</time>
      </trkpt>
      <trkpt lat="48.76223" lon="7.3242">
        <ele>400.756104</ele>
        <time>2010-07-08T16:51:58Z</time>
      </trkpt>
      <trkpt lat="48.76211" lon="7.32437">
        <ele>400.334229</ele>
        <time>2010-07-08T16:52:01Z</time>
      </trkpt>
      <trkpt lat="48.76198" lon="7.32454">
        <ele>400.310791</ele>
        <time>2010-07-08T16:52:04Z</time>
      </trkpt>
      <trkpt lat="48.76185" lon="7.32471">
        <ele>400.271729</ele>
        <time>2010-07-08T16:52:07Z</time>
      </trkpt>
      <trkpt lat="48.76172" lon="7.3249">
        <ele>400.138916</ele>
        <time>2010-07-08T16:52:10Z</time>
      </trkpt>
      <trkpt lat="48.76157" lon="7.3251">
        <ele>399.631104</ele>
        <time>2010-07-08T16:52:13Z</time>
      </trkpt>
      <trkpt lat="48.76143" lon="7.32531">
        <ele>399.162354</ele>
        <time>2010-07-08T16:52:16Z</time>
      </trkpt>
      <trkpt lat="48.76132" lon="7.32544">
        <ele>399.076416</ele>
        <time>2010-07-08T16:52:18Z</time>
      </trkpt>
      <trkpt lat="48.76121" lon="7.32558">
        <ele>399.209229</ele>
        <time>2010-07-08T16:52:20Z</time>
      </trkpt>
      <trkpt lat="48.76109" lon="7.3257">
        <ele>399.006104</ele>
        <time>2010-07-08T16:52:22Z</time>
      </trkpt>
      <trkpt lat="48.76096" lon="7.32583">
        <ele>398.537354</ele>
        <time>2010-07-08T16:52:24Z</time>
      </trkpt>
      <trkpt lat="48.76083" lon="7.32594">
        <ele>398.232666</ele>
        <time>2010-07-08T16:52:26Z</time>
      </trkpt>
      <trkpt lat="48.76069" lon="7.32606">
        <ele>397.959229</ele>
        <time>2010-07-08T16:52:28Z</time>
      </trkpt>
      <trkpt lat="48.76056" lon="7.32617">
        <ele>397.842041</ele>
        <time>2010-07-08T16:52:30Z</time>
      </trkpt>
      <trkpt lat="48.76042" lon="7.32628">
        <ele>397.427979</ele>
        <time>2010-07-08T16:52:32Z</time>
      </trkpt>
      <trkpt lat="48.76028" lon="7.3264">
        <ele>396.756104</ele>
        <time>2010-07-08T16:52:34Z</time>
      </trkpt>
      <trkpt lat="48.76014" lon="7.32651">
        <ele>396.334229</ele>
        <time>2010-07-08T16:52:36Z</time>
      </trkpt>
      <trkpt lat="48.76001" lon="7.32662">
        <ele>396.013916</ele>
        <time>2010-07-08T16:52:38Z</time>
      </trkpt>
      <trkpt lat="48.75988" lon="7.32672">
        <ele>395.623291</ele>
        <time>2010-07-08T16:52:40Z</time>
      </trkpt>
      <trkpt lat="48.75976" lon="7.32681">
        <ele>395.177979</ele>
        <time>2010-07-08T16:52:42Z</time>
      </trkpt>
      <trkpt lat="48.75964" lon="7.32692">
        <ele>395.232666</ele>
        <time>2010-07-08T16:52:44Z</time>
      </trkpt>
      <trkpt lat="48.75948" lon="7.32705">
        <ele>394.959229</ele>
        <time>2010-07-08T16:52:47Z</time>
      </trkpt>
      <trkpt lat="48.75932" lon="7.32718">
        <ele>394.974854</ele>
        <time>2010-07-08T16:52:50Z</time>
      </trkpt>
      <trkpt lat="48.75917" lon="7.32732">
        <ele>394.677979</ele>
        <time>2010-07-08T16:52:53Z</time>
      </trkpt>
      <trkpt lat="48.75901" lon="7.32745">
        <ele>394.873291</ele>
        <time>2010-07-08T16:52:56Z</time>
      </trkpt>
      <trkpt lat="48.75886" lon="7.32759">
        <ele>394.943604</ele>
        <time>2010-07-08T16:52:59Z</time>
      </trkpt>
      <trkpt lat="48.75869" lon="7.32773">
        <ele>394.834229</ele>
        <time>2010-07-08T16:53:02Z</time>
      </trkpt>
      <trkpt lat="48.75852" lon="7.32789">
        <ele>394.271729</ele>
        <time>2010-07-08T16:53:05Z</time>
      </trkpt>
      <trkpt lat="48.7584" lon="7.32799">
        <ele>394.170166</ele>
        <time>2010-07-08T16:53:07Z</time>
      </trkpt>
      <trkpt lat="48.75828" lon="7.32808">
        <ele>393.818604</ele>
        <time>2010-07-08T16:53:09Z</time>
      </trkpt>
      <trkpt lat="48.75815" lon="7.32818">
        <ele>393.584229</ele>
        <time>2010-07-08T16:53:11Z</time>
      </trkpt>
      <trkpt lat="48.75802" lon="7.32828">
        <ele>393.576416</ele>
        <time>2010-07-08T16:53:13Z</time>
      </trkpt>
      <trkpt lat="48.7579" lon="7.32839">
        <ele>393.904541</ele>
        <time>2010-07-08T16:53:15Z</time>
      </trkpt>
      <trkpt lat="48.75777" lon="7.3285">
        <ele>393.998291</ele>
        <time>2010-07-08T16:53:17Z</time>
      </trkpt>
      <trkpt lat="48.75765" lon="7.32859">
        <ele>394.209229</ele>
        <time>2010-07-08T16:53:19Z</time>
      </trkpt>
      <trkpt lat="48.75747" lon="7.32874">
        <ele>394.420166</ele>
        <time>2010-07-08T16:53:22Z</time>
      </trkpt>
      <trkpt lat="48.75731" lon="7.32887">
        <ele>394.881104</ele>
        <time>2010-07-08T16:53:25Z</time>
      </trkpt>
      <trkpt lat="48.75719" lon="7.32897">
        <ele>395.631104</ele>
        <time>2010-07-08T16:53:28Z</time>
      </trkpt>
      <trkpt lat="48.75705" lon="7.32889">
        <ele>395.560791</ele>
        <time>2010-07-08T16:53:33Z</time>
      </trkpt>
      <trkpt lat="48.757" lon="7.32868">
        <ele>395.740479</ele>
        <time>2010-07-08T16:53:37Z</time>
      </trkpt>
      <trkpt lat="48.75694" lon="7.3285">
        <ele>396.810791</ele>
        <time>2010-07-08T16:53:43Z</time>
      </trkpt>
      <trkpt lat="48.75688" lon="7.32831">
        <ele>398.256104</ele>
        <time>2010-07-08T16:53:52Z</time>
      </trkpt>
      <trkpt lat="48.75685" lon="7.3281">
        <ele>398.662354</ele>
        <time>2010-07-08T16:54:02Z</time>
      </trkpt>
      <trkpt lat="48.7568" lon="7.3279">
        <ele>398.881104</ele>
        <time>2010-07-08T16:54:11Z</time>
      </trkpt>
      <trkpt lat="48.75678" lon="7.32769">
        <ele>399.552979</ele>
        <time>2010-07-08T16:54:18Z</time>
      </trkpt>
      <trkpt lat="48.75673" lon="7.32748">
        <ele>399.326416</ele>
        <time>2010-07-08T16:54:27Z</time>
      </trkpt>
      <trkpt lat="48.75668" lon="7.32725">
        <ele>400.951416</ele>
        <time>2010-07-08T16:54:34Z</time>
      </trkpt>
      <trkpt lat="48.75662" lon="7.32706">
        <ele>401.013916</ele>
        <time>2010-07-08T16:54:40Z</time>
      </trkpt>
      <trkpt lat="48.75647" lon="7.3271">
        <ele>404.224854</ele>
        <time>2010-07-08T16:54:59Z</time>
      </trkpt>
      <trkpt lat="48.75637" lon="7.32728">
        <ele>404.771729</ele>
        <time>2010-07-08T16:55:06Z</time>
      </trkpt>
      <trkpt lat="48.75628" lon="7.32745">
        <ele>405.396729</ele>
        <time>2010-07-08T16:55:11Z</time>
      </trkpt>
      <trkpt lat="48.75619" lon="7.32762">
        <ele>405.857666</ele>
        <time>2010-07-08T16:55:17Z</time>
      </trkpt>
      <trkpt lat="48.7561" lon="7.32778">
        <ele>407.990479</ele>
        <time>2010-07-08T16:55:24Z</time>
      </trkpt>
      <trkpt lat="48.75599" lon="7.32792">
        <ele>410.138916</ele>
        <time>2010-07-08T16:55:31Z</time>
      </trkpt>
      <trkpt lat="48.75588" lon="7.32807">
        <ele>409.740479</ele>
        <time>2010-07-08T16:55:39Z</time>
      </trkpt>
      <trkpt lat="48.75578" lon="7.32821">
        <ele>410.709229</ele>
        <time>2010-07-08T16:55:47Z</time>
      </trkpt>
      <trkpt lat="48.75569" lon="7.32837">
        <ele>410.990479</ele>
        <time>2010-07-08T16:55:54Z</time>
      </trkpt>
      <trkpt lat="48.75559" lon="7.32853">
        <ele>411.506104</ele>
        <time>2010-07-08T16:56:02Z</time>
      </trkpt>
      <trkpt lat="48.7555" lon="7.32869">
        <ele>411.748291</ele>
        <time>2010-07-08T16:56:10Z</time>
      </trkpt>
      <trkpt lat="48.75539" lon="7.32886">
        <ele>413.537354</ele>
        <time>2010-07-08T16:56:19Z</time>
      </trkpt>
      <trkpt lat="48.75529" lon="7.32902">
        <ele>415.685791</ele>
        <time>2010-07-08T16:56:27Z</time>
      </trkpt>
      <trkpt lat="48.75517" lon="7.32919">
        <ele>415.920166</ele>
        <time>2010-07-08T16:56:33Z</time>
      </trkpt>
      <trkpt lat="48.7551" lon="7.32938">
        <ele>416.443604</ele>
        <time>2010-07-08T16:56:39Z</time>
      </trkpt>
      <trkpt lat="48.75508" lon="7.32959">
        <ele>417.318604</ele>
        <time>2010-07-08T16:56:45Z</time>
      </trkpt>
      <trkpt lat="48.75494" lon="7.32966">
        <ele>416.474854</ele>
        <time>2010-07-08T16:56:52Z</time>
      </trkpt>
      <trkpt lat="48.75481" lon="7.32972">
        <ele>416.131104</ele>
        <time>2010-07-08T16:56:58Z</time>
      </trkpt>
      <trkpt lat="48.75466" lon="7.32977">
        <ele>415.529541</ele>
        <time>2010-07-08T16:57:06Z</time>
      </trkpt>
      <trkpt lat="48.75452" lon="7.3298">
        <ele>414.802979</ele>
        <time>2010-07-08T16:57:12Z</time>
      </trkpt>
      <trkpt lat="48.75438" lon="7.32984">
        <ele>414.685791</ele>
        <time>2010-07-08T16:57:18Z</time>
      </trkpt>
      <trkpt lat="48.75422" lon="7.32989">
        <ele>414.373291</ele>
        <time>2010-07-08T16:57:24Z</time>
      </trkpt>
      <trkpt lat="48.75411" lon="7.33">
        <ele>413.357666</ele>
        <time>2010-07-08T16:57:32Z</time>
      </trkpt>
      <trkpt lat="48.75402" lon="7.33017">
        <ele>414.295166</ele>
        <time>2010-07-08T16:57:40Z</time>
      </trkpt>
      <trkpt lat="48.75395" lon="7.33035">
        <ele>414.123291</ele>
        <time>2010-07-08T16:57:45Z</time>
      </trkpt>
      <trkpt lat="48.75386" lon="7.33051">
        <ele>416.013916</ele>
        <time>2010-07-08T16:57:52Z</time>
      </trkpt>
      <trkpt lat="48.75373" lon="7.33065">
        <ele>417.006104</ele>
        <time>2010-07-08T16:57:58Z</time>
      </trkpt>
      <trkpt lat="48.75361" lon="7.33076">
        <ele>414.623291</ele>
        <time>2010-07-08T16:58:05Z</time>
      </trkpt>
      <trkpt lat="48.75349" lon="7.33087">
        <ele>412.756104</ele>
        <time>2010-07-08T16:58:29Z</time>
      </trkpt>
      <trkpt lat="48.75337" lon="7.33097">
        <ele>414.021729</ele>
        <time>2010-07-08T16:58:36Z</time>
      </trkpt>
      <trkpt lat="48.75326" lon="7.33113">
        <ele>415.217041</ele>
        <time>2010-07-08T16:58:54Z</time>
      </trkpt>
      <trkpt lat="48.75318" lon="7.33132">
        <ele>415.037354</ele>
        <time>2010-07-08T16:59:01Z</time>
      </trkpt>
      <trkpt lat="48.75305" lon="7.33145">
        <ele>413.654541</ele>
        <time>2010-07-08T16:59:06Z</time>
      </trkpt>
      <trkpt lat="48.75295" lon="7.33162">
        <ele>411.685791</ele>
        <time>2010-07-08T16:59:11Z</time>
      </trkpt>
      <trkpt lat="48.75287" lon="7.33181">
        <ele>409.162354</ele>
        <time>2010-07-08T16:59:16Z</time>
      </trkpt>
      <trkpt lat="48.75279" lon="7.33201">
        <ele>407.537354</ele>
        <time>2010-07-08T16:59:22Z</time>
      </trkpt>
      <trkpt lat="48.75272" lon="7.33225">
        <ele>405.287354</ele>
        <time>2010-07-08T16:59:27Z</time>
      </trkpt>
      <trkpt lat="48.75271" lon="7.33247">
        <ele>402.842041</ele>
        <time>2010-07-08T16:59:31Z</time>
      </trkpt>
      <trkpt lat="48.75265" lon="7.33269">
        <ele>401.170166</ele>
        <time>2010-07-08T16:59:37Z</time>
      </trkpt>
      <trkpt lat="48.75254" lon="7.33287">
        <ele>399.771729</ele>
        <time>2010-07-08T16:59:44Z</time>
      </trkpt>
      <trkpt lat="48.75243" lon="7.33307">
        <ele>397.224854</ele>
        <time>2010-07-08T16:59:49Z</time>
      </trkpt>
      <trkpt lat="48.75231" lon="7.33318">
        <ele>393.802979</ele>
        <time>2010-07-08T16:59:54Z</time>
      </trkpt>
      <trkpt lat="48.75214" lon="7.33323">
        <ele>390.592041</ele>
        <time>2010-07-08T17:00:04Z</time>
      </trkpt>
      <trkpt lat="48.75203" lon="7.33331">
        <ele>385.881104</ele>
        <time>2010-07-08T17:00:13Z</time>
      </trkpt>
      <trkpt lat="48.7519" lon="7.33344">
        <ele>383.927979</ele>
        <time>2010-07-08T17:00:19Z</time>
      </trkpt>
      <trkpt lat="48.75181" lon="7.33362">
        <ele>382.131104</ele>
        <time>2010-07-08T17:00:25Z</time>
      </trkpt>
      <trkpt lat="48.75173" lon="7.33383">
        <ele>380.529541</ele>
        <time>2010-07-08T17:00:30Z</time>
      </trkpt>
      <trkpt lat="48.75168" lon="7.33405">
        <ele>378.279541</ele>
        <time>2010-07-08T17:00:35Z</time>
      </trkpt>
      <trkpt lat="48.75162" lon="7.33427">
        <ele>375.115479</ele>
        <time>2010-07-08T17:00:40Z</time>
      </trkpt>
      <trkpt lat="48.75162" lon="7.33447">
        <ele>373.412354</ele>
        <time>2010-07-08T17:00:45Z</time>
      </trkpt>
      <trkpt lat="48.75156" lon="7.33469">
        <ele>371.967041</ele>
        <time>2010-07-08T17:00:51Z</time>
      </trkpt>
      <trkpt lat="48.75151" lon="7.33494">
        <ele>370.443604</ele>
        <time>2010-07-08T17:00:55Z</time>
      </trkpt>
      <trkpt lat="48.75143" lon="7.33516">
        <ele>368.967041</ele>
        <time>2010-07-08T17:01:00Z</time>
      </trkpt>
      <trkpt lat="48.75136" lon="7.33537">
        <ele>367.271729</ele>
        <time>2010-07-08T17:01:04Z</time>
      </trkpt>
      <trkpt lat="48.75127" lon="7.33555">
        <ele>367.701416</ele>
        <time>2010-07-08T17:01:09Z</time>
      </trkpt>
      <trkpt lat="48.75118" lon="7.33573">
        <ele>366.302979</ele>
        <time>2010-07-08T17:01:19Z</time>
      </trkpt>
      <trkpt lat="48.75109" lon="7.33592">
        <ele>365.857666</ele>
        <time>2010-07-08T17:01:26Z</time>
      </trkpt>
      <trkpt lat="48.75102" lon="7.3361">
        <ele>363.857666</ele>
        <time>2010-07-08T17:01:34Z</time>
      </trkpt>
      <trkpt lat="48.75095" lon="7.3363">
        <ele>360.482666</ele>
        <time>2010-07-08T17:01:41Z</time>
      </trkpt>
      <trkpt lat="48.75089" lon="7.3365">
        <ele>358.076416</ele>
        <time>2010-07-08T17:01:48Z</time>
      </trkpt>
      <trkpt lat="48.75087" lon="7.33674">
        <ele>355.459229</ele>
        <time>2010-07-08T17:01:55Z</time>
      </trkpt>
      <trkpt lat="48.75083" lon="7.33694">
        <ele>352.037354</ele>
        <time>2010-07-08T17:02:02Z</time>
      </trkpt>
      <trkpt lat="48.75074" lon="7.33708">
        <ele>347.748291</ele>
        <time>2010-07-08T17:02:12Z</time>
      </trkpt>
      <trkpt lat="48.75064" lon="7.33724">
        <ele>344.709229</ele>
        <time>2010-07-08T17:02:19Z</time>
      </trkpt>
      <trkpt lat="48.75051" lon="7.33738">
        <ele>342.670166</ele>
        <time>2010-07-08T17:02:23Z</time>
      </trkpt>
      <trkpt lat="48.75039" lon="7.33746">
        <ele>341.865479</ele>
        <time>2010-07-08T17:02:26Z</time>
      </trkpt>
      <trkpt lat="48.75025" lon="7.33754">
        <ele>340.920166</ele>
        <time>2010-07-08T17:02:30Z</time>
      </trkpt>
      <trkpt lat="48.75011" lon="7.33764">
        <ele>338.459229</ele>
        <time>2010-07-08T17:02:34Z</time>
      </trkpt>
      <trkpt lat="48.74999" lon="7.33783">
        <ele>337.888916</ele>
        <time>2010-07-08T17:02:39Z</time>
      </trkpt>
      <trkpt lat="48.74991" lon="7.338">
        <ele>336.506104</ele>
        <time>2010-07-08T17:02:43Z</time>
      </trkpt>
      <trkpt lat="48.74982" lon="7.33816">
        <ele>335.427979</ele>
        <time>2010-07-08T17:02:47Z</time>
      </trkpt>
      <trkpt lat="48.74972" lon="7.33831">
        <ele>333.490479</ele>
        <time>2010-07-08T17:02:50Z</time>
      </trkpt>
      <trkpt lat="48.74963" lon="7.33847">
        <ele>331.974854</ele>
        <time>2010-07-08T17:02:53Z</time>
      </trkpt>
      <trkpt lat="48.74955" lon="7.33865">
        <ele>330.717041</ele>
        <time>2010-07-08T17:03:02Z</time>
      </trkpt>
      <trkpt lat="48.7495" lon="7.33884">
        <ele>328.920166</ele>
        <time>2010-07-08T17:03:24Z</time>
      </trkpt>
      <trkpt lat="48.74941" lon="7.339">
        <ele>327.545166</ele>
        <time>2010-07-08T17:03:35Z</time>
      </trkpt>
      <trkpt lat="48.7493" lon="7.33915">
        <ele>326.357666</ele>
        <time>2010-07-08T17:03:44Z</time>
      </trkpt>
      <trkpt lat="48.74923" lon="7.33933">
        <ele>325.599854</ele>
        <time>2010-07-08T17:03:51Z</time>
      </trkpt>
      <trkpt lat="48.74915" lon="7.33952">
        <ele>324.146729</ele>
        <time>2010-07-08T17:03:58Z</time>
      </trkpt>
      <trkpt lat="48.74908" lon="7.33973">
        <ele>322.037354</ele>
        <time>2010-07-08T17:04:04Z</time>
      </trkpt>
      <trkpt lat="48.749" lon="7.33992">
        <ele>318.443604</ele>
        <time>2010-07-08T17:04:09Z</time>
      </trkpt>
      <trkpt lat="48.74894" lon="7.3401">
        <ele>316.131104</ele>
        <time>2010-07-08T17:04:16Z</time>
      </trkpt>
      <trkpt lat="48.7489" lon="7.34031">
        <ele>312.404541</ele>
        <time>2010-07-08T17:04:27Z</time>
      </trkpt>
      <trkpt lat="48.74884" lon="7.34049">
        <ele>309.763916</ele>
        <time>2010-07-08T17:04:38Z</time>
      </trkpt>
      <trkpt lat="48.74883" lon="7.34071">
        <ele>310.092041</ele>
        <time>2010-07-08T17:04:58Z</time>
      </trkpt>
      <trkpt lat="48.74886" lon="7.34093">
        <ele>307.974854</ele>
        <time>2010-07-08T17:05:08Z</time>
      </trkpt>
      <trkpt lat="48.74872" lon="7.341">
        <ele>306.146729</ele>
        <time>2010-07-08T17:05:25Z</time>
      </trkpt>
      <trkpt lat="48.74865" lon="7.3412">
        <ele>304.529541</ele>
        <time>2010-07-08T17:05:32Z</time>
      </trkpt>
      <trkpt lat="48.74862" lon="7.3414">
        <ele>300.217041</ele>
        <time>2010-07-08T17:05:39Z</time>
      </trkpt>
      <trkpt lat="48.74856" lon="7.3416">
        <ele>296.560791</ele>
        <time>2010-07-08T17:05:47Z</time>
      </trkpt>
      <trkpt lat="48.74852" lon="7.34181">
        <ele>294.732666</ele>
        <time>2010-07-08T17:05:55Z</time>
      </trkpt>
      <trkpt lat="48.74846" lon="7.34199">
        <ele>294.443604</ele>
        <time>2010-07-08T17:06:00Z</time>
      </trkpt>
      <trkpt lat="48.74839" lon="7.34217">
        <ele>289.763916</ele>
        <time>2010-07-08T17:06:05Z</time>
      </trkpt>
      <trkpt lat="48.74833" lon="7.34236">
        <ele>288.365479</ele>
        <time>2010-07-08T17:06:11Z</time>
      </trkpt>
      <trkpt lat="48.74826" lon="7.34255">
        <ele>286.287354</ele>
        <time>2010-07-08T17:06:17Z</time>
      </trkpt>
      <trkpt lat="48.7482" lon="7.34278">
        <ele>284.084229</ele>
        <time>2010-07-08T17:06:22Z</time>
      </trkpt>
      <trkpt lat="48.74813" lon="7.34302">
        <ele>283.334229</ele>
        <time>2010-07-08T17:06:26Z</time>
      </trkpt>
      <trkpt lat="48.74803" lon="7.34315">
        <ele>283.974854</ele>
        <time>2010-07-08T17:06:31Z</time>
      </trkpt>
      <trkpt lat="48.74791" lon="7.3433">
        <ele>282.349854</ele>
        <time>2010-07-08T17:06:36Z</time>
      </trkpt>
      <trkpt lat="48.74778" lon="7.34337">
        <ele>279.123291</ele>
        <time>2010-07-08T17:06:43Z</time>
      </trkpt>
      <trkpt lat="48.74765" lon="7.34351">
        <ele>278.904541</ele>
        <time>2010-07-08T17:06:52Z</time>
      </trkpt>
      <trkpt lat="48.74749" lon="7.34362">
        <ele>277.107666</ele>
        <time>2010-07-08T17:07:02Z</time>
      </trkpt>
      <trkpt lat="48.74739" lon="7.34376">
        <ele>276.685791</ele>
        <time>2010-07-08T17:07:08Z</time>
      </trkpt>
      <trkpt lat="48.74729" lon="7.34389">
        <ele>276.099854</ele>
        <time>2010-07-08T17:07:15Z</time>
      </trkpt>
      <trkpt lat="48.74718" lon="7.34403">
        <ele>275.873291</ele>
        <time>2010-07-08T17:07:23Z</time>
      </trkpt>
      <trkpt lat="48.74705" lon="7.3441">
        <ele>277.138916</ele>
        <time>2010-07-08T17:07:30Z</time>
      </trkpt>
      <trkpt lat="48.74693" lon="7.34419">
        <ele>279.662354</ele>
        <time>2010-07-08T17:07:39Z</time>
      </trkpt>
      <trkpt lat="48.74682" lon="7.34432">
        <ele>282.240479</ele>
        <time>2010-07-08T17:07:48Z</time>
      </trkpt>
      <trkpt lat="48.74671" lon="7.34447">
        <ele>283.631104</ele>
        <time>2010-07-08T17:07:58Z</time>
      </trkpt>
      <trkpt lat="48.74658" lon="7.34457">
        <ele>285.404541</ele>
        <time>2010-07-08T17:08:08Z</time>
      </trkpt>
      <trkpt lat="48.74647" lon="7.3447">
        <ele>287.607666</ele>
        <time>2010-07-08T17:08:17Z</time>
      </trkpt>
      <trkpt lat="48.74637" lon="7.34486">
        <ele>285.810791</ele>
        <time>2010-07-08T17:08:24Z</time>
      </trkpt>
      <trkpt lat="48.74625" lon="7.34497">
        <ele>284.623291</ele>
        <time>2010-07-08T17:08:32Z</time>
      </trkpt>
      <trkpt lat="48.74617" lon="7.34513">
        <ele>281.654541</ele>
        <time>2010-07-08T17:09:06Z</time>
      </trkpt>
      <trkpt lat="48.74622" lon="7.345">
        <ele>270.615479</ele>
        <time>2010-07-08T17:10:54Z</time>
      </trkpt>
      <trkpt lat="48.74632" lon="7.34484">
        <ele>266.787354</ele>
        <time>2010-07-08T17:11:04Z</time>
      </trkpt>
      <trkpt lat="48.74636" lon="7.34461">
        <ele>262.185791</ele>
        <time>2010-07-08T17:11:15Z</time>
      </trkpt>
      <trkpt lat="48.74641" lon="7.34442">
        <ele>259.974854</ele>
        <time>2010-07-08T17:11:19Z</time>
      </trkpt>
      <trkpt lat="48.74647" lon="7.34423">
        <ele>257.427979</ele>
        <time>2010-07-08T17:11:23Z</time>
      </trkpt>
      <trkpt lat="48.74654" lon="7.34402">
        <ele>252.526489</ele>
        <time>2010-07-08T17:11:28Z</time>
      </trkpt>
      <trkpt lat="48.7466" lon="7.3438">
        <ele>248.932739</ele>
        <time>2010-07-08T17:11:33Z</time>
      </trkpt>
      <trkpt lat="48.74666" lon="7.34359">
        <ele>246.491333</ele>
        <time>2010-07-08T17:11:38Z</time>
      </trkpt>
      <trkpt lat="48.74666" lon="7.34335">
        <ele>241.405396</ele>
        <time>2010-07-08T17:11:43Z</time>
      </trkpt>
      <trkpt lat="48.74666" lon="7.34313">
        <ele>239.280396</ele>
        <time>2010-07-08T17:11:50Z</time>
      </trkpt>
      <trkpt lat="48.74659" lon="7.34295">
        <ele>237.514771</ele>
        <time>2010-07-08T17:11:56Z</time>
      </trkpt>
      <trkpt lat="48.74649" lon="7.34307">
        <ele>236.096802</ele>
        <time>2010-07-08T17:12:11Z</time>
      </trkpt>
      <trkpt lat="48.74637" lon="7.34324">
        <ele>234.077271</ele>
        <time>2010-07-08T17:12:16Z</time>
      </trkpt>
      <trkpt lat="48.74625" lon="7.34338">
        <ele>233.538208</ele>
        <time>2010-07-08T17:12:19Z</time>
      </trkpt>
      <trkpt lat="48.74615" lon="7.34354">
        <ele>233.378052</ele>
        <time>2010-07-08T17:12:22Z</time>
      </trkpt>
      <trkpt lat="48.74606" lon="7.34373">
        <ele>233.077271</ele>
        <time>2010-07-08T17:12:26Z</time>
      </trkpt>
      <trkpt lat="48.74595" lon="7.34388">
        <ele>233.288208</ele>
        <time>2010-07-08T17:12:29Z</time>
      </trkpt>
      <trkpt lat="48.74587" lon="7.34409">
        <ele>233.780396</ele>
        <time>2010-07-08T17:12:33Z</time>
      </trkpt>
      <trkpt lat="48.74575" lon="7.34428">
        <ele>234.229614</ele>
        <time>2010-07-08T17:12:38Z</time>
      </trkpt>
      <trkpt lat="48.74567" lon="7.34451">
        <ele>234.866333</ele>
        <time>2010-07-08T17:12:40Z</time>
      </trkpt>
      <trkpt lat="48.74558" lon="7.34473">
        <ele>235.085083</ele>
        <time>2010-07-08T17:12:43Z</time>
      </trkpt>
      <trkpt lat="48.74547" lon="7.34493">
        <ele>235.694458</ele>
        <time>2010-07-08T17:12:46Z</time>
      </trkpt>
      <trkpt lat="48.74542" lon="7.34516">
        <ele>235.698364</ele>
        <time>2010-07-08T17:12:49Z</time>
      </trkpt>
      <trkpt lat="48.74529" lon="7.34537">
        <ele>234.842896</ele>
        <time>2010-07-08T17:12:52Z</time>
      </trkpt>
      <trkpt lat="48.74519" lon="7.34558">
        <ele>232.690552</ele>
        <time>2010-07-08T17:12:55Z</time>
      </trkpt>
      <trkpt lat="48.74514" lon="7.34583">
        <ele>230.667114</ele>
        <time>2010-07-08T17:12:59Z</time>
      </trkpt>
      <trkpt lat="48.74516" lon="7.34609">
        <ele>227.729614</ele>
        <time>2010-07-08T17:13:03Z</time>
      </trkpt>
      <trkpt lat="48.74523" lon="7.34624">
        <ele>219.549927</ele>
        <time>2010-07-08T17:13:06Z</time>
      </trkpt>
      <trkpt lat="48.74526" lon="7.34645">
        <ele>214.026489</ele>
        <time>2010-07-08T17:13:09Z</time>
      </trkpt>
      <trkpt lat="48.74526" lon="7.34674">
        <ele>210.620239</ele>
        <time>2010-07-08T17:13:12Z</time>
      </trkpt>
      <trkpt lat="48.74525" lon="7.34697">
        <ele>208.471802</ele>
        <time>2010-07-08T17:13:15Z</time>
      </trkpt>
      <trkpt lat="48.74528" lon="7.34717">
        <ele>206.819458</ele>
        <time>2010-07-08T17:13:21Z</time>
      </trkpt>
      <trkpt lat="48.74531" lon="7.34697">
        <ele>209.385864</ele>
        <time>2010-07-08T17:13:38Z</time>
      </trkpt>
      <trkpt lat="48.74529" lon="7.34717">
        <ele>204.878052</ele>
        <time>2010-07-08T17:13:54Z</time>
      </trkpt>
      <trkpt lat="48.74524" lon="7.34742">
        <ele>202.256958</ele>
        <time>2010-07-08T17:13:58Z</time>
      </trkpt>
      <trkpt lat="48.74522" lon="7.34767">
        <ele>200.893677</ele>
        <time>2010-07-08T17:14:01Z</time>
      </trkpt>
      <trkpt lat="48.74521" lon="7.34788">
        <ele>199.651489</ele>
        <time>2010-07-08T17:14:03Z</time>
      </trkpt>
      <trkpt lat="48.7452" lon="7.34811">
        <ele>198.717896</ele>
        <time>2010-07-08T17:14:05Z</time>
      </trkpt>
      <trkpt lat="48.74519" lon="7.34836">
        <ele>197.725708</ele>
        <time>2010-07-08T17:14:07Z</time>
      </trkpt>
      <trkpt lat="48.74518" lon="7.34861">
        <ele>197.092896</ele>
        <time>2010-07-08T17:14:09Z</time>
      </trkpt>
      <trkpt lat="48.74516" lon="7.34888">
        <ele>196.358521</ele>
        <time>2010-07-08T17:14:11Z</time>
      </trkpt>
      <trkpt lat="48.74515" lon="7.34915">
        <ele>195.624146</ele>
        <time>2010-07-08T17:14:13Z</time>
      </trkpt>
      <trkpt lat="48.74514" lon="7.34941">
        <ele>195.151489</ele>
        <time>2010-07-08T17:14:15Z</time>
      </trkpt>
      <trkpt lat="48.74513" lon="7.34966">
        <ele>194.581177</ele>
        <time>2010-07-08T17:14:17Z</time>
      </trkpt>
      <trkpt lat="48.74512" lon="7.3499">
        <ele>194.405396</ele>
        <time>2010-07-08T17:14:19Z</time>
      </trkpt>
      <trkpt lat="48.7451" lon="7.35013">
        <ele>193.346802</ele>
        <time>2010-07-08T17:14:23Z</time>
      </trkpt>
      <trkpt lat="48.74513" lon="7.35038">
        <ele>193.546021</ele>
        <time>2010-07-08T17:14:29Z</time>
      </trkpt>
      <trkpt lat="48.74522" lon="7.35061">
        <ele>193.831177</ele>
        <time>2010-07-08T17:14:32Z</time>
      </trkpt>
      <trkpt lat="48.74533" lon="7.35088">
        <ele>194.081177</ele>
        <time>2010-07-08T17:14:35Z</time>
      </trkpt>
      <trkpt lat="48.7454" lon="7.35107">
        <ele>193.831177</ele>
        <time>2010-07-08T17:14:37Z</time>
      </trkpt>
      <trkpt lat="48.74547" lon="7.35127">
        <ele>193.581177</ele>
        <time>2010-07-08T17:14:39Z</time>
      </trkpt>
      <trkpt lat="48.74554" lon="7.35146">
        <ele>193.210083</ele>
        <time>2010-07-08T17:14:41Z</time>
      </trkpt>
      <trkpt lat="48.74562" lon="7.35165">
        <ele>192.674927</ele>
        <time>2010-07-08T17:14:43Z</time>
      </trkpt>
      <trkpt lat="48.74571" lon="7.35184">
        <ele>193.092896</ele>
        <time>2010-07-08T17:14:45Z</time>
      </trkpt>
      <trkpt lat="48.74579" lon="7.35202">
        <ele>193.303833</ele>
        <time>2010-07-08T17:14:47Z</time>
      </trkpt>
      <trkpt lat="48.74587" lon="7.3522">
        <ele>193.499146</ele>
        <time>2010-07-08T17:14:49Z</time>
      </trkpt>
      <trkpt lat="48.74595" lon="7.35238">
        <ele>193.573364</ele>
        <time>2010-07-08T17:14:51Z</time>
      </trkpt>
      <trkpt lat="48.74603" lon="7.35255">
        <ele>193.151489</ele>
        <time>2010-07-08T17:14:53Z</time>
      </trkpt>
      <trkpt lat="48.74609" lon="7.35284">
        <ele>193.463989</ele>
        <time>2010-07-08T17:14:56Z</time>
      </trkpt>
      <trkpt lat="48.74611" lon="7.35312">
        <ele>193.319458</ele>
        <time>2010-07-08T17:14:59Z</time>
      </trkpt>
      <trkpt lat="48.74605" lon="7.35341">
        <ele>192.733521</ele>
        <time>2010-07-08T17:15:02Z</time>
      </trkpt>
      <trkpt lat="48.74601" lon="7.3536">
        <ele>192.819458</ele>
        <time>2010-07-08T17:15:04Z</time>
      </trkpt>
      <trkpt lat="48.74597" lon="7.3538">
        <ele>192.913208</ele>
        <time>2010-07-08T17:15:06Z</time>
      </trkpt>
      <trkpt lat="48.74591" lon="7.35409">
        <ele>193.077271</ele>
        <time>2010-07-08T17:15:09Z</time>
      </trkpt>
      <trkpt lat="48.74584" lon="7.35438">
        <ele>192.835083</ele>
        <time>2010-07-08T17:15:12Z</time>
      </trkpt>
      <trkpt lat="48.74578" lon="7.35465">
        <ele>193.530396</ele>
        <time>2010-07-08T17:15:15Z</time>
      </trkpt>
      <trkpt lat="48.74571" lon="7.35492">
        <ele>193.647583</ele>
        <time>2010-07-08T17:15:18Z</time>
      </trkpt>
      <trkpt lat="48.74566" lon="7.3552">
        <ele>194.046021</ele>
        <time>2010-07-08T17:15:21Z</time>
      </trkpt>
      <trkpt lat="48.74559" lon="7.35542">
        <ele>194.100708</ele>
        <time>2010-07-08T17:15:24Z</time>
      </trkpt>
      <trkpt lat="48.74549" lon="7.35557">
        <ele>193.717896</ele>
        <time>2010-07-08T17:15:31Z</time>
      </trkpt>
      <trkpt lat="48.74535" lon="7.35566">
        <ele>193.057739</ele>
        <time>2010-07-08T17:15:34Z</time>
      </trkpt>
      <trkpt lat="48.74522" lon="7.35573">
        <ele>192.717896</ele>
        <time>2010-07-08T17:15:36Z</time>
      </trkpt>
      <trkpt lat="48.74508" lon="7.3558">
        <ele>192.421021</ele>
        <time>2010-07-08T17:15:38Z</time>
      </trkpt>
      <trkpt lat="48.74493" lon="7.35586">
        <ele>191.253052</ele>
        <time>2010-07-08T17:15:40Z</time>
      </trkpt>
      <trkpt lat="48.74479" lon="7.35594">
        <ele>191.085083</ele>
        <time>2010-07-08T17:15:42Z</time>
      </trkpt>
      <trkpt lat="48.74467" lon="7.35602">
        <ele>191.362427</ele>
        <time>2010-07-08T17:15:44Z</time>
      </trkpt>
      <trkpt lat="48.74452" lon="7.3561">
        <ele>191.592896</ele>
        <time>2010-07-08T17:15:46Z</time>
      </trkpt>
      <trkpt lat="48.74438" lon="7.35618">
        <ele>191.514771</ele>
        <time>2010-07-08T17:15:48Z</time>
      </trkpt>
      <trkpt lat="48.74424" lon="7.35629">
        <ele>191.088989</ele>
        <time>2010-07-08T17:15:50Z</time>
      </trkpt>
      <trkpt lat="48.74413" lon="7.35643">
        <ele>190.393677</ele>
        <time>2010-07-08T17:15:52Z</time>
      </trkpt>
      <trkpt lat="48.74401" lon="7.35655">
        <ele>189.913208</ele>
        <time>2010-07-08T17:15:54Z</time>
      </trkpt>
      <trkpt lat="48.74389" lon="7.35666">
        <ele>189.788208</ele>
        <time>2010-07-08T17:15:56Z</time>
      </trkpt>
      <trkpt lat="48.74377" lon="7.35676">
        <ele>188.823364</ele>
        <time>2010-07-08T17:15:59Z</time>
      </trkpt>
    </trkseg>
  </trk>
</gpx>